Time;durP1;ratioP1;P1;durP2;ratioP2;P2;SDS_P1;SDS_P2;PMS_P1;PMS_P2;Temp;Humidity;BMP_temperature;BMP_pressure;BME280_temperature;BME280_humidity;BME280_pressure;Samples;Min_cycle;Max_cycle;Signal;HPM_P1;HPM_P2
2022/05/22 00:01:59;;;;;;;3.73;1.90;;;16.40;99.90;;;;;;5005667;28;20432;-74
2022/05/22 00:04:25;;;;;;;2.03;1.83;;;16.40;99.90;;;;;;5004059;28;21463;-74
2022/05/22 00:06:51;;;;;;;4.03;1.93;;;16.40;99.90;;;;;;5005997;28;20180;-74
2022/05/22 00:09:17;;;;;;;2.10;1.90;;;16.30;99.90;;;;;;5006028;28;20213;-73
2022/05/22 00:11:43;;;;;;;2.63;1.90;;;16.30;99.90;;;;;;5005649;28;20724;-74
2022/05/22 00:14:12;;;;;;;2.50;2.00;;;16.20;99.90;;;;;;5004769;28;20268;-73
2022/05/22 00:16:46;;;;;;;4.00;2.30;;;16.20;99.90;;;;;;5006031;28;20539;-75
2022/05/22 00:19:24;;;;;;;3.67;2.33;;;16.10;99.90;;;;;;5006302;28;20460;-74
2022/05/22 00:21:50;;;;;;;2.10;1.90;;;16.10;99.90;;;;;;5005517;28;20473;-73
2022/05/22 00:24:18;;;;;;;3.03;1.80;;;16.10;99.90;;;;;;5005764;28;20418;-74
2022/05/22 00:26:44;;;;;;;3.00;1.97;;;16.10;99.90;;;;;;5005429;28;20487;-74
2022/05/22 00:29:10;;;;;;;2.97;2.13;;;16.10;99.90;;;;;;5004351;28;20429;-74
2022/05/22 00:31:36;;;;;;;4.70;2.53;;;16.00;99.90;;;;;;5005617;28;20462;-74
2022/05/22 00:34:01;;;;;;;2.10;1.83;;;15.90;99.90;;;;;;5004276;28;20187;-72
2022/05/22 00:36:27;;;;;;;3.00;2.67;;;15.80;99.90;;;;;;5005542;28;20186;-74
2022/05/22 00:38:53;;;;;;;3.07;2.17;;;15.70;99.90;;;;;;5005147;28;20221;-73
2022/05/22 00:41:19;;;;;;;2.90;2.10;;;15.80;99.90;;;;;;5005380;28;20640;-72
2022/05/22 00:43:51;;;;;;;2.93;2.33;;;15.80;99.90;;;;;;5005256;28;20192;-76
2022/05/22 00:46:18;;;;;;;3.10;2.57;;;15.90;99.90;;;;;;5005197;28;20806;-71
2022/05/22 00:48:50;;;;;;;2.60;2.40;;;15.90;99.90;;;;;;5005247;28;20430;-74
2022/05/22 00:51:24;;;;;;;3.23;2.40;;;15.90;99.90;;;;;;5004618;28;20449;-74
2022/05/22 00:54:14;;;;;;;3.20;2.30;;;15.90;99.90;;;;;;5004882;28;20407;-73
2022/05/22 00:56:46;;;;;;;2.60;2.40;;;15.90;99.90;;;;;;5003577;28;20510;-74
2022/05/22 00:59:19;;;;;;;2.90;2.33;;;15.90;99.90;;;;;;5004918;28;20434;-76
2022/05/22 01:01:46;;;;;;;2.20;2.00;;;15.80;99.90;;;;;;5004685;28;20471;-74
2022/05/22 01:04:19;;;;;;;2.90;2.57;;;15.70;99.90;;;;;;5004727;28;20421;-74
2022/05/22 01:06:45;;;;;;;2.30;2.10;;;15.60;99.90;;;;;;5005075;28;20422;-74
2022/05/22 01:09:11;;;;;;;4.20;2.43;;;15.60;99.90;;;;;;5004987;28;20445;-74
2022/05/22 01:11:37;;;;;;;3.03;2.47;;;15.60;99.90;;;;;;5004900;28;20506;-74
2022/05/22 01:14:16;;;;;;;3.03;2.57;;;15.60;99.90;;;;;;5004639;28;20178;-74
2022/05/22 01:16:42;;;;;;;2.73;2.00;;;15.60;99.90;;;;;;5004582;28;20412;-75
2022/05/22 01:19:18;;;;;;;4.43;2.97;;;15.50;99.90;;;;;;5004780;28;20514;-73
2022/05/22 01:22:19;;;;;;;3.97;2.23;;;15.40;99.90;;;;;;5004579;28;20414;-74
2022/05/22 01:24:44;;;;;;;4.43;2.80;;;15.30;99.90;;;;;;4924787;29;20445;-74
2022/05/22 01:27:16;;;;;;;11.30;2.90;;;15.30;99.90;;;;;;4987718;28;20428;-76
2022/05/22 01:29:41;;;;;;;3.13;2.60;;;15.20;99.90;;;;;;5004383;28;20203;-75
2022/05/22 01:32:07;;;;;;;3.83;2.50;;;15.20;99.90;;;;;;5004559;28;20551;-74
2022/05/22 01:34:33;;;;;;;2.80;2.60;;;15.20;99.90;;;;;;5004608;28;20268;-75
2022/05/22 01:36:59;;;;;;;2.30;2.00;;;15.30;99.90;;;;;;5004284;28;20518;-76
2022/05/22 01:39:24;;;;;;;2.70;2.20;;;15.30;99.90;;;;;;5004883;28;20250;-74
2022/05/22 01:41:51;;;;;;;2.93;2.30;;;15.40;99.90;;;;;;5004355;28;20179;-74
2022/05/22 01:44:16;;;;;;;3.53;2.20;;;15.40;99.90;;;;;;5004852;28;20554;-74
2022/05/22 01:46:42;;;;;;;3.93;2.90;;;15.40;99.90;;;;;;5004018;28;20417;-75
2022/05/22 01:49:08;;;;;;;3.30;3.00;;;15.40;99.90;;;;;;5004370;28;20722;-74
2022/05/22 01:51:38;;;;;;;5.10;3.17;;;15.40;99.90;;;;;;5004268;28;20223;-76
2022/05/22 01:54:04;;;;;;;3.90;2.80;;;15.30;99.90;;;;;;5005837;28;20406;-73
2022/05/22 01:56:32;;;;;;;3.43;2.50;;;15.30;99.90;;;;;;5003934;28;20480;-72
2022/05/22 01:58:57;;;;;;;3.73;3.03;;;15.30;99.90;;;;;;5003715;28;20795;-73
2022/05/22 02:01:23;;;;;;;2.50;2.30;;;15.20;99.90;;;;;;5003854;28;20422;-73
2022/05/22 02:03:48;;;;;;;3.40;2.23;;;15.20;99.90;;;;;;5004052;28;20363;-73
2022/05/22 02:06:14;;;;;;;3.37;2.60;;;14.90;99.90;;;;;;5004392;28;20643;-73
2022/05/22 02:08:42;;;;;;;5.43;2.80;;;15.00;99.90;;;;;;5004189;28;20686;-75
2022/05/22 02:11:08;;;;;;;3.03;2.70;;;15.10;99.90;;;;;;5004045;28;20623;-74
2022/05/22 02:13:36;;;;;;;3.73;2.60;;;15.10;99.90;;;;;;5002026;28;20442;-73
2022/05/22 02:16:02;;;;;;;3.10;2.57;;;15.10;99.90;;;;;;5003936;28;20469;-73
2022/05/22 02:18:28;;;;;;;2.87;2.63;;;15.20;99.90;;;;;;5004313;28;20946;-76
2022/05/22 02:20:54;;;;;;;3.53;3.23;;;15.30;99.90;;;;;;5003782;28;20211;-75
2022/05/22 02:23:20;;;;;;;3.70;2.80;;;15.40;99.90;;;;;;5004111;28;20183;-72
2022/05/22 02:25:52;;;;;;;3.37;3.03;;;15.40;99.90;;;;;;5003593;28;20598;-73
2022/05/22 02:28:19;;;;;;;5.17;3.20;;;15.40;99.90;;;;;;5003930;28;20440;-73
2022/05/22 02:30:52;;;;;;;4.27;3.10;;;15.40;99.90;;;;;;5003717;28;21442;-74
2022/05/22 02:33:17;;;;;;;3.97;3.23;;;15.30;99.90;;;;;;5003974;28;20482;-73
2022/05/22 02:35:43;;;;;;;3.07;2.87;;;15.20;99.90;;;;;;5003995;28;20444;-75
2022/05/22 02:38:10;;;;;;;3.47;3.17;;;15.10;99.90;;;;;;5004324;28;20235;-73
2022/05/22 02:40:37;;;;;;;4.27;3.40;;;15.20;99.90;;;;;;5003746;28;20174;-74
2022/05/22 02:43:03;;;;;;;3.57;2.70;;;15.20;99.90;;;;;;5004113;28;20438;-74
2022/05/22 02:45:31;;;;;;;3.50;3.20;;;15.30;99.90;;;;;;5003742;28;20413;-76
2022/05/22 02:47:57;;;;;;;3.63;3.33;;;15.20;99.90;;;;;;5003925;28;20990;-74
2022/05/22 02:50:25;;;;;;;3.83;3.30;;;15.20;99.90;;;;;;5003614;28;20407;-74
2022/05/22 02:52:51;;;;;;;3.30;3.00;;;15.20;99.90;;;;;;5004040;28;20457;-74
2022/05/22 02:55:18;;;;;;;6.20;3.97;;;15.20;99.90;;;;;;5002613;28;20436;-75
2022/05/22 02:57:44;;;;;;;4.90;3.33;;;15.10;99.90;;;;;;5003853;28;20171;-74
2022/05/22 03:00:18;;;;;;;4.90;4.00;;;14.90;99.90;;;;;;5003876;28;20442;-74
2022/05/22 03:02:43;;;;;;;5.60;3.40;;;14.80;99.90;;;;;;5004040;28;20411;-76
2022/05/22 03:05:10;;;;;;;3.00;2.73;;;14.80;99.90;;;;;;5003735;28;20501;-74
2022/05/22 03:07:37;;;;;;;7.57;3.90;;;14.80;99.90;;;;;;5002786;28;20244;-77
2022/05/22 03:10:07;;;;;;;3.93;3.53;;;14.90;99.90;;;;;;5004838;28;20469;-74
2022/05/22 03:12:33;;;;;;;4.37;3.50;;;14.90;99.90;;;;;;5003518;28;20466;-74
2022/05/22 03:14:59;;;;;;;6.03;3.50;;;14.70;99.90;;;;;;5004377;28;20413;-74
2022/05/22 03:17:25;;;;;;;4.33;3.73;;;14.60;99.90;;;;;;5007458;28;20440;-74
2022/05/22 03:19:51;;;;;;;3.90;3.20;;;14.70;99.90;;;;;;5006556;28;20210;-74
2022/05/22 03:22:17;;;;;;;4.00;3.27;;;14.60;99.90;;;;;;5006497;28;20194;-75
2022/05/22 03:24:43;;;;;;;3.43;3.13;;;14.50;99.90;;;;;;5005750;28;20507;-73
2022/05/22 03:27:13;;;;;;;3.57;3.27;;;14.50;99.90;;;;;;5006779;28;20417;-76
2022/05/22 03:29:40;;;;;;;3.63;3.33;;;14.60;99.90;;;;;;5005869;28;20430;-75
2022/05/22 03:32:07;;;;;;;4.30;3.20;;;14.60;99.90;;;;;;5006494;28;20456;-73
2022/05/22 03:34:33;;;;;;;3.90;3.23;;;14.60;99.90;;;;;;5006582;28;20419;-76
2022/05/22 03:36:58;;;;;;;5.13;3.17;;;14.50;99.90;;;;;;5006461;28;20418;-75
2022/05/22 03:39:24;;;;;;;3.87;3.47;;;14.30;99.90;;;;;;5006483;28;20280;-74
2022/05/22 03:41:50;;;;;;;4.70;3.53;;;14.30;99.90;;;;;;5006670;28;20214;-73
2022/05/22 03:44:15;;;;;;;3.27;3.07;;;14.30;99.90;;;;;;5006612;28;20193;-73
2022/05/22 03:46:41;;;;;;;4.20;3.60;;;14.30;99.90;;;;;;5006144;28;20304;-74
2022/05/22 03:49:07;;;;;;;4.47;4.00;;;14.40;99.90;;;;;;5006517;28;20306;-72
2022/05/22 03:51:34;;;;;;;3.37;3.10;;;14.30;99.90;;;;;;5006213;28;21022;-73
2022/05/22 03:54:00;;;;;;;3.47;3.17;;;14.30;99.90;;;;;;5006515;28;20670;-74
2022/05/22 03:56:25;;;;;;;3.23;2.93;;;14.30;99.90;;;;;;5005923;28;20456;-75
2022/05/22 03:58:51;;;;;;;5.10;3.40;;;14.30;99.90;;;;;;5006035;28;20209;-74
2022/05/22 04:01:17;;;;;;;3.53;3.23;;;14.40;99.90;;;;;;5006074;28;20203;-73
2022/05/22 04:03:42;;;;;;;6.47;3.70;;;14.50;99.90;;;;;;5004988;28;20181;-73
2022/05/22 04:06:10;;;;;;;3.90;3.60;;;14.50;99.90;;;;;;5005979;28;20179;-74
2022/05/22 04:08:36;;;;;;;3.23;2.80;;;14.50;99.90;;;;;;5004965;28;20229;-74
2022/05/22 04:11:20;;;;;;;4.60;2.97;;;14.60;99.90;;;;;;5004999;28;20513;-73
2022/05/22 04:13:47;;;;;;;3.63;3.33;;;14.60;99.90;;;;;;5006105;28;20238;-73
2022/05/22 04:16:13;;;;;;;4.93;3.30;;;14.60;99.90;;;;;;5005981;28;20460;-74
2022/05/22 04:18:39;;;;;;;3.60;3.10;;;14.50;99.90;;;;;;5004609;28;20480;-73
2022/05/22 04:21:05;;;;;;;3.70;3.40;;;14.60;99.90;;;;;;5004673;28;20881;-73
2022/05/22 04:26:15;;;;;;;3.77;3.47;;;14.70;99.90;;;;;;5005340;28;20527;-73
2022/05/22 04:28:41;;;;;;;3.50;3.20;;;14.70;99.90;;;;;;5005870;28;20929;-74
2022/05/22 04:31:07;;;;;;;4.33;3.87;;;14.70;99.90;;;;;;5005667;28;20184;-74
2022/05/22 04:33:33;;;;;;;4.03;3.10;;;14.80;99.90;;;;;;5005460;28;20908;-74
2022/05/22 04:35:59;;;;;;;3.27;2.97;;;14.80;99.90;;;;;;5005911;28;20602;-73
2022/05/22 04:38:25;;;;;;;3.60;3.30;;;14.90;99.90;;;;;;5005435;28;20200;-74
2022/05/22 04:41:01;;;;;;;5.20;3.37;;;14.90;99.90;;;;;;5004179;28;20985;-74
2022/05/22 04:43:29;;;;;;;5.83;4.27;;;14.90;99.90;;;;;;5003969;28;20187;-76
2022/05/22 04:45:55;;;;;;;7.00;4.47;;;15.00;99.90;;;;;;5005174;28;20426;-76
2022/05/22 04:48:22;;;;;;;3.40;2.90;;;15.00;99.90;;;;;;5004845;28;20446;-74
2022/05/22 04:50:49;;;;;;;3.90;3.50;;;15.10;99.90;;;;;;5005054;28;20479;-74
2022/05/22 04:53:17;;;;;;;3.40;3.10;;;15.10;99.90;;;;;;5005203;28;20489;-74
2022/05/22 04:55:42;;;;;;;4.03;3.73;;;15.20;99.90;;;;;;5004885;28;20421;-75
2022/05/22 04:58:08;;;;;;;3.53;3.00;;;15.20;99.90;;;;;;5004957;28;20456;-74
2022/05/22 05:00:34;;;;;;;3.60;2.90;;;15.20;99.90;;;;;;5005139;28;20178;-74
2022/05/22 05:03:00;;;;;;;4.03;3.60;;;15.20;99.90;;;;;;5005183;28;20185;-74
2022/05/22 05:05:27;;;;;;;3.40;3.10;;;15.30;99.90;;;;;;5004983;28;20422;-75
2022/05/22 05:07:53;;;;;;;3.60;3.10;;;15.40;99.90;;;;;;5005174;28;20223;-75
2022/05/22 05:10:19;;;;;;;3.57;3.27;;;15.40;99.90;;;;;;5004452;28;20418;-76
2022/05/22 05:12:45;;;;;;;5.63;3.57;;;15.50;99.90;;;;;;5005075;28;20541;-76
2022/05/22 05:15:13;;;;;;;5.33;2.93;;;15.60;99.90;;;;;;5003530;28;20181;-73
2022/05/22 05:17:39;;;;;;;5.00;3.67;;;15.70;99.90;;;;;;5004843;28;20674;-74
2022/05/22 05:20:06;;;;;;;3.60;3.20;;;15.70;99.90;;;;;;5005917;28;20428;-74
2022/05/22 05:22:32;;;;;;;3.20;3.00;;;15.80;99.90;;;;;;5003568;28;20443;-75
2022/05/22 05:24:58;;;;;;;4.33;3.03;;;15.80;99.90;;;;;;5005357;28;20422;-74
2022/05/22 05:27:23;;;;;;;4.13;3.10;;;15.90;99.90;;;;;;5005018;28;20414;-74
2022/05/22 05:29:49;;;;;;;3.60;3.00;;;16.00;99.90;;;;;;5004412;28;20206;-76
2022/05/22 05:32:18;;;;;;;2.70;2.50;;;16.20;99.90;;;;;;5004829;28;20659;-74
2022/05/22 05:34:44;;;;;;;3.63;2.97;;;16.30;99.90;;;;;;5004877;28;20604;-74
2022/05/22 05:37:10;;;;;;;2.83;2.63;;;16.30;99.90;;;;;;5004443;28;20441;-75
2022/05/22 05:39:35;;;;;;;2.80;2.60;;;16.40;99.90;;;;;;5004667;28;20236;-73
2022/05/22 05:42:01;;;;;;;3.10;2.90;;;16.60;99.90;;;;;;5004641;28;20723;-73
2022/05/22 05:44:27;;;;;;;4.10;3.00;;;16.70;99.90;;;;;;5004863;28;20187;-74
2022/05/22 05:46:52;;;;;;;2.50;2.30;;;16.90;99.90;;;;;;5005108;28;20183;-74
2022/05/22 05:49:18;;;;;;;3.80;2.90;;;16.90;99.90;;;;;;5005210;28;20689;-74
2022/05/22 05:51:44;;;;;;;3.83;3.50;;;17.10;99.90;;;;;;5004571;28;20254;-74
2022/05/22 05:54:10;;;;;;;2.90;2.60;;;17.20;99.90;;;;;;5004319;28;20663;-74
2022/05/22 05:56:40;;;;;;;3.67;3.07;;;17.40;99.90;;;;;;5003709;28;20409;-73
2022/05/22 05:59:06;;;;;;;3.60;2.97;;;17.50;99.90;;;;;;5004531;28;20211;-73
2022/05/22 06:01:33;;;;;;;2.93;2.63;;;17.70;99.90;;;;;;5003976;28;20451;-73
2022/05/22 06:03:59;;;;;;;3.00;2.70;;;17.80;99.90;;;;;;5004675;28;20190;-73
2022/05/22 06:06:25;;;;;;;5.00;2.77;;;18.00;99.90;;;;;;5004185;28;20468;-75
2022/05/22 06:08:52;;;;;;;3.27;2.67;;;18.10;99.90;;;;;;5004849;28;20951;-74
2022/05/22 06:11:18;;;;;;;4.37;2.47;;;18.20;99.90;;;;;;5003943;28;20183;-75
2022/05/22 06:13:44;;;;;;;2.60;2.23;;;18.20;99.90;;;;;;5004757;28;20848;-73
2022/05/22 06:16:09;;;;;;;3.43;2.60;;;18.30;99.90;;;;;;5004510;28;20241;-73
2022/05/22 06:18:35;;;;;;;3.70;2.23;;;18.50;99.90;;;;;;5003886;28;20471;-73
2022/05/22 06:21:27;;;;;;;3.00;2.40;;;18.60;99.90;;;;;;5006025;28;20172;-76
2022/05/22 06:24:02;;;;;;;2.67;2.30;;;18.40;99.90;;;;;;5000605;28;20196;-74
2022/05/22 06:26:28;;;;;;;2.73;2.47;;;18.60;99.90;;;;;;5004399;28;20409;-74
2022/05/22 06:28:54;;;;;;;2.70;2.27;;;18.60;99.90;;;;;;5002631;28;20453;-75
2022/05/22 06:31:19;;;;;;;5.47;2.67;;;18.60;99.90;;;;;;5003507;28;20264;-73
2022/05/22 06:33:45;;;;;;;3.03;2.23;;;18.80;99.90;;;;;;5004061;28;20583;-73
2022/05/22 06:36:13;;;;;;;2.43;2.17;;;19.00;99.90;;;;;;5004948;28;20697;-75
2022/05/22 06:41:24;;;;;;;3.20;2.40;;;19.40;99.90;;;;;;5003842;28;20457;-74
2022/05/22 06:43:53;;;;;;;3.57;2.30;;;19.70;99.90;;;;;;5005039;28;20919;-74
2022/05/22 06:46:30;;;;;;;2.10;1.90;;;19.80;99.90;;;;;;5004120;28;20911;-74
2022/05/22 06:48:57;;;;;;;2.33;1.80;;;19.50;99.90;;;;;;5003244;28;20458;-76
2022/05/22 06:51:23;;;;;;;4.70;2.40;;;19.60;99.90;;;;;;5006635;28;20417;-74
2022/05/22 06:53:48;;;;;;;3.57;2.23;;;19.70;99.90;;;;;;5006936;28;20935;-74
2022/05/22 06:56:14;;;;;;;2.50;2.10;;;19.80;99.90;;;;;;5008014;28;20176;-75
2022/05/22 06:58:39;;;;;;;4.00;2.23;;;20.00;99.90;;;;;;5008003;28;20200;-74
2022/05/22 07:01:05;;;;;;;3.00;2.43;;;19.90;99.90;;;;;;5007751;28;20529;-75
2022/05/22 07:03:30;;;;;;;3.13;2.20;;;20.00;99.90;;;;;;5008640;28;20219;-75
2022/05/22 07:05:56;;;;;;;3.27;2.30;;;19.50;99.90;;;;;;5007893;28;20184;-74
2022/05/22 07:08:22;;;;;;;4.10;2.13;;;19.40;99.90;;;;;;5005997;28;20196;-76
2022/05/22 07:13:32;;;;;;;4.07;2.40;;;19.50;99.90;;;;;;5007248;28;20258;-74
2022/05/22 07:16:03;;;;;;;2.40;2.20;;;19.50;99.90;;;;;;5007527;28;20997;-73
2022/05/22 07:18:29;;;;;;;2.57;2.37;;;19.60;99.90;;;;;;5007346;28;20665;-73
2022/05/22 07:20:55;;;;;;;4.83;2.10;;;19.90;99.90;;;;;;5007871;28;20802;-72
2022/05/22 07:23:20;;;;;;;3.00;1.90;;;20.10;99.90;;;;;;5007258;28;20179;-73
2022/05/22 07:25:46;;;;;;;4.50;2.50;;;20.20;99.90;;;;;;5007196;28;20187;-73
2022/05/22 07:28:12;;;;;;;3.17;2.27;;;20.00;99.90;;;;;;5007298;28;20211;-74
2022/05/22 07:30:37;;;;;;;3.47;2.13;;;19.90;99.90;;;;;;5007219;28;20202;-74
2022/05/22 07:33:03;;;;;;;3.67;2.03;;;19.90;99.90;;;;;;5007150;28;20291;-74
2022/05/22 07:35:28;;;;;;;3.27;2.20;;;20.10;99.90;;;;;;5006914;28;20188;-74
2022/05/22 07:37:54;;;;;;;4.40;1.87;;;20.30;99.90;;;;;;5007864;28;20200;-74
2022/05/22 07:40:20;;;;;;;2.67;2.47;;;20.40;99.90;;;;;;5006923;28;20258;-74
2022/05/22 07:42:45;;;;;;;3.23;2.27;;;20.40;99.90;;;;;;5006878;28;20195;-77
2022/05/22 07:45:14;;;;;;;2.77;2.20;;;20.60;99.90;;;;;;5006400;28;20183;-75
2022/05/22 07:47:39;;;;;;;3.10;2.23;;;20.70;99.90;;;;;;5006677;28;20179;-75
2022/05/22 07:50:18;;;;;;;3.30;2.30;;;20.30;99.90;;;;;;5006546;28;20461;-75
2022/05/22 07:52:45;;;;;;;2.37;2.10;;;20.00;99.90;;;;;;5007424;28;20670;-74
2022/05/22 07:55:14;;;;;;;4.60;2.93;;;19.90;99.90;;;;;;5006022;28;20411;-74
2022/05/22 07:57:49;;;;;;;4.27;2.37;;;20.00;99.90;;;;;;5005013;28;20510;-75
2022/05/22 08:00:19;;;;;;;3.63;2.10;;;20.40;99.90;;;;;;5006464;28;20405;-74
2022/05/22 08:02:45;;;;;;;3.53;2.43;;;20.50;99.90;;;;;;5006097;28;20884;-75
2022/05/22 08:05:13;;;;;;;2.57;2.37;;;20.20;99.90;;;;;;5006707;28;20506;-74
2022/05/22 08:07:38;;;;;;;3.53;2.53;;;20.20;99.90;;;;;;5007127;28;20432;-75
2022/05/22 08:10:06;;;;;;;4.30;2.70;;;19.90;99.90;;;;;;5006639;28;20411;-75
2022/05/22 08:12:46;;;;;;;2.17;1.93;;;19.60;99.90;;;;;;5006042;28;20239;-75
2022/05/22 08:15:14;;;;;;;2.57;2.03;;;19.80;99.90;;;;;;5006047;28;20411;-74
2022/05/22 08:17:39;;;;;;;4.67;2.40;;;20.00;99.90;;;;;;5005830;28;20410;-73
2022/05/22 08:20:14;;;;;;;4.00;2.00;;;20.10;99.90;;;;;;5006461;28;20766;-74
2022/05/22 08:22:46;;;;;;;2.70;2.00;;;20.50;99.90;;;;;;5005897;28;20175;-73
2022/05/22 08:25:14;;;;;;;2.70;2.23;;;20.60;99.90;;;;;;5005869;28;20411;-76
2022/05/22 08:27:40;;;;;;;4.60;2.63;;;20.80;99.90;;;;;;5006162;28;20422;-73
2022/05/22 08:30:07;;;;;;;7.60;2.43;;;21.00;99.90;;;;;;5004401;28;20771;-73
2022/05/22 08:32:39;;;;;;;3.00;2.67;;;20.70;99.90;;;;;;5005724;28;20572;-74
2022/05/22 08:35:07;;;;;;;2.40;2.20;;;20.90;99.90;;;;;;5006107;28;20412;-73
2022/05/22 08:37:33;;;;;;;2.57;2.30;;;21.10;99.90;;;;;;5005820;28;20521;-75
2022/05/22 08:40:00;;;;;;;2.30;2.10;;;21.20;99.90;;;;;;5005913;28;20883;-75
2022/05/22 08:42:37;;;;;;;3.40;2.23;;;21.40;99.90;;;;;;5005809;28;20421;-72
2022/05/22 08:45:09;;;;;;;3.93;1.97;;;21.60;99.80;;;;;;5004878;28;20410;-74
2022/05/22 08:47:42;;;;;;;2.60;1.67;;;21.60;99.30;;;;;;5006000;28;20407;-75
2022/05/22 08:50:11;;;;;;;2.03;1.83;;;21.60;99.90;;;;;;5005393;28;20430;-74
2022/05/22 08:52:41;;;;;;;7.43;2.20;;;21.40;99.70;;;;;;5006662;28;20534;-73
2022/05/22 08:55:19;;;;;;;2.30;1.90;;;21.30;99.80;;;;;;5007938;28;20414;-75
2022/05/22 09:00:39;;;;;;;3.50;2.27;;;21.10;99.90;;;;;;5007168;28;20589;-73
2022/05/22 09:03:24;;;;;;;4.37;2.23;;;21.30;99.90;;;;;;5006298;28;20415;-74
2022/05/22 09:05:55;;;;;;;2.20;1.83;;;21.50;99.50;;;;;;5005692;28;20418;-73
2022/05/22 09:08:33;;;;;;;2.47;2.17;;;21.60;99.20;;;;;;5006731;28;20496;-73
2022/05/22 09:11:32;;;;;;;2.20;2.00;;;21.70;98.70;;;;;;5006025;28;20411;-74
2022/05/22 09:14:31;;;;;;;2.57;1.70;;;21.80;98.80;;;;;;5005949;28;20414;-74
2022/05/22 09:17:17;;;;;;;2.53;2.33;;;21.90;98.10;;;;;;5018849;28;21018;-75
2022/05/22 09:19:54;;;;;;;2.13;1.87;;;21.90;98.10;;;;;;5007923;28;20449;-74
2022/05/22 09:22:50;;;;;;;4.43;2.00;;;21.80;97.50;;;;;;5006490;28;20434;-75
2022/05/22 09:25:44;;;;;;;2.07;1.87;;;21.90;97.50;;;;;;5017794;28;20433;-75
2022/05/22 09:28:43;;;;;;;2.00;1.80;;;22.10;97.60;;;;;;5023967;28;20810;-75
2022/05/22 09:31:26;;;;;;;2.70;2.10;;;22.10;97.50;;;;;;5021849;28;20415;-75
2022/05/22 09:33:54;;;;;;;3.53;1.70;;;22.40;97.50;;;;;;5022386;28;20395;-76
2022/05/22 09:36:34;;;;;;;1.80;1.57;;;22.60;97.00;;;;;;5021521;28;20415;-74
2022/05/22 09:39:15;;;;;;;2.10;1.70;;;22.80;96.40;;;;;;5023657;28;20434;-76
2022/05/22 09:42:02;;;;;;;1.97;1.50;;;22.80;96.40;;;;;;5022103;28;20423;-77
2022/05/22 09:44:42;;;;;;;3.00;1.70;;;23.10;95.90;;;;;;5021017;28;20414;-75
2022/05/22 09:47:13;;;;;;;1.53;1.43;;;23.40;95.50;;;;;;5020942;28;20406;-74
2022/05/22 09:50:00;;;;;;;2.70;1.50;;;23.70;95.20;;;;;;5005777;28;20509;-75
2022/05/22 09:52:53;;;;;;;2.03;1.53;;;23.90;96.30;;;;;;5005291;28;20453;-74
2022/05/22 09:55:22;;;;;;;3.00;1.90;;;24.00;94.60;;;;;;5004534;28;20820;-73
2022/05/22 09:57:53;;;;;;;5.00;1.87;;;23.60;94.30;;;;;;5005140;28;20422;-73
2022/05/22 10:00:40;;;;;;;3.27;1.90;;;23.40;95.90;;;;;;5004542;28;20395;-74
2022/05/22 10:03:25;;;;;;;2.00;1.57;;;23.70;95.30;;;;;;5005164;28;20666;-75
2022/05/22 10:06:10;;;;;;;3.00;1.80;;;23.90;94.80;;;;;;5004751;28;20418;-74
2022/05/22 10:09:09;;;;;;;1.40;1.27;;;23.80;93.90;;;;;;5032926;22;20498;-72
2022/05/22 10:12:03;;;;;;;3.20;1.70;;;24.10;95.00;;;;;;5003087;28;20411;-73
2022/05/22 10:14:54;;;;;;;2.93;1.70;;;24.10;93.70;;;;;;5002733;28;20407;-72
2022/05/22 10:17:40;;;;;;;2.97;1.93;;;24.00;93.20;;;;;;5004212;28;20435;-71
2022/05/22 10:20:40;;;;;;;2.20;2.00;;;24.60;94.70;;;;;;5004597;28;20403;-71
2022/05/22 10:23:16;;;;;;;3.07;1.70;;;24.40;92.70;;;;;;5003198;28;20415;-74
2022/05/22 10:26:06;;;;;;;2.20;1.77;;;23.90;92.70;;;;;;5007416;28;20902;-72
2022/05/22 10:28:40;;;;;;;2.80;1.97;;;24.00;93.40;;;;;;5008144;28;20431;-73
2022/05/22 10:31:21;;;;;;;2.47;1.90;;;24.20;93.40;;;;;;5008260;28;20555;-73
2022/05/22 10:33:52;;;;;;;2.57;1.70;;;24.30;92.10;;;;;;5007885;28;20407;-73
2022/05/22 10:36:27;;;;;;;3.40;1.60;;;24.30;93.40;;;;;;5007682;28;20521;-72
2022/05/22 10:39:00;;;;;;;3.30;1.60;;;24.70;91.80;;;;;;5007134;28;21527;-71
2022/05/22 10:44:15;;;;;;;3.30;1.87;;;24.90;90.30;;;;;;5007160;28;20441;-71
2022/05/22 10:46:59;;;;;;;3.87;1.87;;;24.20;90.60;;;;;;5007497;28;21018;-72
2022/05/22 10:49:39;;;;;;;2.47;2.07;;;24.00;91.50;;;;;;5007114;28;20399;-74
2022/05/22 10:52:07;;;;;;;3.00;1.73;;;24.40;91.40;;;;;;5007116;28;20478;-75
2022/05/22 10:54:35;;;;;;;2.30;1.80;;;24.60;93.00;;;;;;5006281;28;20423;-70
2022/05/22 10:57:17;;;;;;;1.97;1.40;;;24.90;92.50;;;;;;5006080;28;20462;-74
2022/05/22 10:59:43;;;;;;;3.73;1.87;;;25.00;90.80;;;;;;5006406;28;20495;-72
2022/05/22 11:02:22;;;;;;;2.80;1.57;;;25.10;90.50;;;;;;5007636;28;20415;-75
2022/05/22 11:04:49;;;;;;;2.73;1.83;;;24.90;90.70;;;;;;5007266;28;20403;-74
2022/05/22 11:07:30;;;;;;;2.20;1.60;;;24.90;91.30;;;;;;5006544;28;20458;-73
2022/05/22 11:10:04;;;;;;;2.13;1.93;;;25.10;90.70;;;;;;5006642;28;20465;-74
2022/05/22 11:12:30;;;;;;;2.07;1.63;;;24.90;90.50;;;;;;5007113;28;20504;-72
2022/05/22 11:15:26;;;;;;;2.83;2.23;;;25.20;89.70;;;;;;5006247;28;20427;-73
2022/05/22 11:18:07;;;;;;;2.40;1.80;;;24.90;89.40;;;;;;5005379;28;20200;-74
2022/05/22 11:20:34;;;;;;;1.87;1.77;;;24.60;89.10;;;;;;5007739;28;20431;-73
2022/05/22 11:23:36;;;;;;;2.63;1.90;;;25.20;88.80;;;;;;5006906;28;20915;-74
2022/05/22 11:26:34;;;;;;;1.93;1.53;;;26.40;85.00;;;;;;5005703;28;21102;-74
2022/05/22 11:29:07;;;;;;;3.30;1.90;;;27.00;83.30;;;;;;5001481;28;20497;-74
2022/05/22 11:32:09;;;;;;;2.63;2.00;;;28.20;78.50;;;;;;5006383;28;20422;-72
2022/05/22 11:34:51;;;;;;;1.90;1.70;;;29.60;75.70;;;;;;5006072;28;20484;-73
2022/05/22 11:37:35;;;;;;;2.70;1.70;;;30.50;69.40;;;;;;5005671;28;20438;-74
2022/05/22 11:40:44;;;;;;;1.90;1.70;;;30.60;67.00;;;;;;5007061;28;20411;-72
2022/05/22 11:43:31;;;;;;;2.03;1.60;;;30.50;66.60;;;;;;5003887;28;20533;-74
2022/05/22 11:45:59;;;;;;;2.90;1.90;;;29.90;67.10;;;;;;5005934;28;20508;-72
2022/05/22 11:48:44;;;;;;;2.77;1.90;;;31.30;64.90;;;;;;5005653;28;20959;-70
2022/05/22 11:51:18;;;;;;;1.80;1.70;;;31.90;61.70;;;;;;5005796;28;20431;-68
2022/05/22 11:53:50;;;;;;;3.53;2.20;;;32.00;59.10;;;;;;5006325;28;20501;-72
2022/05/22 11:56:43;;;;;;;2.57;2.00;;;33.20;59.40;;;;;;5005443;28;20418;-70
2022/05/22 11:59:33;;;;;;;3.07;2.00;;;33.90;55.40;;;;;;5004619;28;20522;-69
2022/05/22 12:02:32;;;;;;;5.10;2.40;;;34.60;52.60;;;;;;5006937;28;20422;-69
2022/05/22 12:05:39;;;;;;;1.67;1.57;;;32.30;53.60;;;;;;5005291;28;20419;-72
2022/05/22 12:08:17;;;;;;;1.77;1.60;;;32.20;56.10;;;;;;4983104;28;20601;-72
2022/05/22 12:10:59;;;;;;;3.10;1.83;;;32.30;54.70;;;;;;5004821;28;20427;-73
2022/05/22 12:13:42;;;;;;;3.07;1.83;;;32.00;56.70;;;;;;5006057;28;20473;-72
2022/05/22 12:16:17;;;;;;;3.53;1.70;;;30.30;57.40;;;;;;5004996;28;20425;-71
2022/05/22 12:18:43;;;;;;;2.83;1.70;;;30.90;59.10;;;;;;5006105;28;20514;-73
2022/05/22 12:21:23;;;;;;;2.97;1.77;;;31.00;56.90;;;;;;5004236;28;20468;-74
2022/05/22 12:24:09;;;;;;;2.53;1.70;;;31.50;55.00;;;;;;5005436;28;21155;-72
2022/05/22 12:26:36;;;;;;;2.60;1.50;;;33.70;51.80;;;;;;4996841;28;20430;-72
2022/05/22 12:29:16;;;;;;;1.87;1.30;;;34.90;49.50;;;;;;5005807;28;20446;-75
2022/05/22 12:31:50;;;;;;;2.27;1.40;;;35.80;50.90;;;;;;5004357;28;20484;-73
2022/05/22 12:34:30;;;;;;;1.77;1.40;;;35.90;47.00;;;;;;5003847;28;20427;-73
2022/05/22 12:36:57;;;;;;;5.70;1.63;;;34.90;47.10;;;;;;5004391;28;20428;-73
2022/05/22 12:39:26;;;;;;;2.23;2.07;;;35.80;46.30;;;;;;5005388;28;20406;-73
2022/05/22 12:42:17;;;;;;;1.67;1.57;;;35.10;47.10;;;;;;5005200;28;20415;-73
2022/05/22 12:44:43;;;;;;;2.53;1.53;;;32.60;50.40;;;;;;5005389;28;20442;-71
2022/05/22 12:47:15;;;;;;;2.30;1.50;;;32.50;51.40;;;;;;5005506;28;20466;-75
2022/05/22 12:49:53;;;;;;;3.20;1.60;;;33.00;48.70;;;;;;5006079;28;20186;-73
2022/05/22 12:52:26;;;;;;;2.30;1.23;;;34.10;48.30;;;;;;5005680;28;20446;-72
2022/05/22 12:55:17;;;;;;;3.90;1.93;;;34.20;47.60;;;;;;5004691;28;20415;-72
2022/05/22 12:57:56;;;;;;;2.70;1.57;;;32.60;51.10;;;;;;5004174;28;20530;-71
2022/05/22 13:00:40;;;;;;;3.30;1.50;;;31.80;51.30;;;;;;5004693;28;20494;-71
2022/05/22 13:03:21;;;;;;;2.17;1.80;;;31.70;50.80;;;;;;5005938;28;20423;-73
2022/05/22 13:05:59;;;;;;;2.70;1.50;;;32.10;50.50;;;;;;5005631;28;20414;-72
2022/05/22 13:08:34;;;;;;;3.43;1.30;;;33.40;49.60;;;;;;5003811;28;20485;-73
2022/05/22 13:11:06;;;;;;;3.13;1.50;;;32.70;49.70;;;;;;5005331;28;20425;-71
2022/05/22 13:13:37;;;;;;;2.00;1.40;;;33.20;48.00;;;;;;5005273;28;20457;-73
2022/05/22 13:16:08;;;;;;;1.93;1.30;;;33.40;49.30;;;;;;5005812;28;20444;-72
2022/05/22 13:18:49;;;;;;;3.03;1.60;;;33.10;48.10;;;;;;5004311;28;20522;-72
2022/05/22 13:21:35;;;;;;;4.47;4.07;;;32.50;50.20;;;;;;5005464;28;20407;-72
2022/05/22 13:24:17;;;;;;;1.90;1.70;;;32.90;49.00;;;;;;5005649;28;20417;-73
2022/05/22 13:27:04;;;;;;;3.17;1.80;;;33.70;47.90;;;;;;5004525;28;20407;-73